sensor_id;sensor_type;location;lat;lon;timestamp;pressure;altitude;pressure_sealevel;temperature;humidity
12536;BME280;6334;48.696;2.114;2023-10-31T00:00:36;98484.38;;;9.83;87.96
12536;BME280;6334;48.696;2.114;2023-10-31T00:03:06;98483.59;;;9.81;88.78
12536;BME280;6334;48.696;2.114;2023-10-31T00:05:36;98484.58;;;10.09;87.89
12536;BME280;6334;48.696;2.114;2023-10-31T00:08:06;98480.58;;;9.58;88.63
12536;BME280;6334;48.696;2.114;2023-10-31T00:10:35;98485.72;;;9.86;87.81
12536;BME280;6334;48.696;2.114;2023-10-31T00:13:05;98479.52;;;9.69;88.44
12536;BME280;6334;48.696;2.114;2023-10-31T00:15:35;98474.63;;;9.59;89.13
12536;BME280;6334;48.696;2.114;2023-10-31T00:18:05;98474.44;;;9.60;89.44
12536;BME280;6334;48.696;2.114;2023-10-31T00:20:36;98476.84;;;9.49;89.91
12536;BME280;6334;48.696;2.114;2023-10-31T00:23:07;98475.98;;;9.63;88.69
12536;BME280;6334;48.696;2.114;2023-10-31T00:25:38;98476.08;;;9.71;88.80
12536;BME280;6334;48.696;2.114;2023-10-31T00:28:08;98475.91;;;9.63;88.80
12536;BME280;6334;48.696;2.114;2023-10-31T00:30:38;98478.30;;;9.40;89.88
12536;BME280;6334;48.696;2.114;2023-10-31T00:33:08;98483.34;;;9.51;89.05
12536;BME280;6334;48.696;2.114;2023-10-31T00:35:38;98486.08;;;9.51;89.37
12536;BME280;6334;48.696;2.114;2023-10-31T00:38:09;98489.83;;;9.38;89.50
12536;BME280;6334;48.696;2.114;2023-10-31T00:40:39;98484.27;;;9.33;90.20
12536;BME280;6334;48.696;2.114;2023-10-31T00:43:09;98485.86;;;9.32;90.25
12536;BME280;6334;48.696;2.114;2023-10-31T00:45:39;98488.81;;;9.41;89.61
12536;BME280;6334;48.696;2.114;2023-10-31T00:48:10;98484.50;;;9.37;89.54
12536;BME280;6334;48.696;2.114;2023-10-31T00:50:40;98485.33;;;9.37;89.55
12536;BME280;6334;48.696;2.114;2023-10-31T00:53:10;98484.44;;;9.22;90.06
12536;BME280;6334;48.696;2.114;2023-10-31T00:55:40;98489.95;;;9.29;89.72
12536;BME280;6334;48.696;2.114;2023-10-31T00:58:10;98488.77;;;9.09;90.36
12536;BME280;6334;48.696;2.114;2023-10-31T01:00:41;98489.58;;;9.17;90.09
12536;BME280;6334;48.696;2.114;2023-10-31T01:03:11;98490.45;;;9.19;90.25
12536;BME280;6334;48.696;2.114;2023-10-31T01:05:42;98487.89;;;9.26;90.00
12536;BME280;6334;48.696;2.114;2023-10-31T01:08:13;98490.18;;;9.33;89.24
12536;BME280;6334;48.696;2.114;2023-10-31T01:10:44;98490.34;;;9.43;89.52
12536;BME280;6334;48.696;2.114;2023-10-31T01:13:13;98495.25;;;9.30;90.04
12536;BME280;6334;48.696;2.114;2023-10-31T01:15:43;98502.80;;;9.40;88.95
12536;BME280;6334;48.696;2.114;2023-10-31T01:18:14;98499.27;;;9.28;89.93
12536;BME280;6334;48.696;2.114;2023-10-31T01:20:45;98498.05;;;9.51;89.26
12536;BME280;6334;48.696;2.114;2023-10-31T01:23:15;98498.83;;;9.34;89.61
12536;BME280;6334;48.696;2.114;2023-10-31T01:25:46;98501.59;;;9.44;89.91
12536;BME280;6334;48.696;2.114;2023-10-31T01:28:17;98500.89;;;9.22;90.22
12536;BME280;6334;48.696;2.114;2023-10-31T01:30:48;98505.07;;;9.34;89.61
12536;BME280;6334;48.696;2.114;2023-10-31T01:33:21;98501.97;;;9.27;89.54
12536;BME280;6334;48.696;2.114;2023-10-31T01:35:51;98506.84;;;9.25;90.02
12536;BME280;6334;48.696;2.114;2023-10-31T01:38:22;98513.33;;;9.25;90.36
12536;BME280;6334;48.696;2.114;2023-10-31T01:40:53;98515.44;;;9.29;90.75
12536;BME280;6334;48.696;2.114;2023-10-31T01:43:29;98512.93;;;9.19;91.15
12536;BME280;6334;48.696;2.114;2023-10-31T01:45:58;98522.72;;;9.53;90.15
12536;BME280;6334;48.696;2.114;2023-10-31T01:48:29;98519.23;;;9.40;91.19
12536;BME280;6334;48.696;2.114;2023-10-31T01:50:59;98517.11;;;9.44;90.79
12536;BME280;6334;48.696;2.114;2023-10-31T01:53:29;98520.95;;;9.41;91.09
12536;BME280;6334;48.696;2.114;2023-10-31T01:55:59;98524.25;;;9.52;90.91
12536;BME280;6334;48.696;2.114;2023-10-31T01:58:37;98517.94;;;9.60;91.27
12536;BME280;6334;48.696;2.114;2023-10-31T02:01:07;98523.44;;;9.57;91.45
12536;BME280;6334;48.696;2.114;2023-10-31T02:03:36;98528.83;;;9.44;92.37
12536;BME280;6334;48.696;2.114;2023-10-31T02:06:06;98526.84;;;9.51;92.53
12536;BME280;6334;48.696;2.114;2023-10-31T02:08:36;98535.95;;;9.60;92.20
12536;BME280;6334;48.696;2.114;2023-10-31T02:11:06;98545.94;;;9.62;92.12
12536;BME280;6334;48.696;2.114;2023-10-31T02:13:37;98552.83;;;9.67;91.95
12536;BME280;6334;48.696;2.114;2023-10-31T02:16:08;98551.16;;;9.78;91.68
12536;BME280;6334;48.696;2.114;2023-10-31T02:18:39;98552.07;;;9.68;92.00
12536;BME280;6334;48.696;2.114;2023-10-31T02:21:08;98547.92;;;9.68;92.15
12536;BME280;6334;48.696;2.114;2023-10-31T02:23:38;98546.95;;;9.69;91.94
12536;BME280;6334;48.696;2.114;2023-10-31T02:26:09;98542.03;;;9.90;91.26
12536;BME280;6334;48.696;2.114;2023-10-31T02:31:13;98543.99;;;9.63;93.16
12536;BME280;6334;48.696;2.114;2023-10-31T02:33:44;98538.90;;;9.66;93.26
12536;BME280;6334;48.696;2.114;2023-10-31T02:36:14;98536.55;;;9.83;92.89
12536;BME280;6334;48.696;2.114;2023-10-31T02:38:46;98537.51;;;9.76;93.33
12536;BME280;6334;48.696;2.114;2023-10-31T02:41:17;98538.98;;;9.72;93.01
12536;BME280;6334;48.696;2.114;2023-10-31T02:43:48;98535.31;;;9.82;92.62
12536;BME280;6334;48.696;2.114;2023-10-31T02:46:18;98534.96;;;9.96;91.79
12536;BME280;6334;48.696;2.114;2023-10-31T02:48:48;98535.88;;;10.15;91.14
12536;BME280;6334;48.696;2.114;2023-10-31T02:51:19;98539.30;;;9.95;92.10
12536;BME280;6334;48.696;2.114;2023-10-31T02:53:49;98543.79;;;10.00;91.75
12536;BME280;6334;48.696;2.114;2023-10-31T02:56:19;98546.02;;;10.17;91.42
12536;BME280;6334;48.696;2.114;2023-10-31T03:01:27;98555.38;;;10.21;91.32
12536;BME280;6334;48.696;2.114;2023-10-31T03:03:56;98553.41;;;10.13;91.49
12536;BME280;6334;48.696;2.114;2023-10-31T03:06:27;98562.05;;;10.23;90.75
12536;BME280;6334;48.696;2.114;2023-10-31T03:08:57;98561.98;;;9.79;92.98
12536;BME280;6334;48.696;2.114;2023-10-31T03:11:29;98565.39;;;9.97;92.62
12536;BME280;6334;48.696;2.114;2023-10-31T03:13:59;98568.62;;;9.98;92.52
12536;BME280;6334;48.696;2.114;2023-10-31T03:16:29;98571.14;;;10.32;90.97
12536;BME280;6334;48.696;2.114;2023-10-31T03:19:00;98571.80;;;10.24;90.93
12536;BME280;6334;48.696;2.114;2023-10-31T03:21:31;98575.03;;;10.10;92.00
12536;BME280;6334;48.696;2.114;2023-10-31T03:24:01;98578.28;;;10.02;92.59
12536;BME280;6334;48.696;2.114;2023-10-31T03:26:32;98580.36;;;10.35;91.62
12536;BME280;6334;48.696;2.114;2023-10-31T03:29:02;98585.59;;;10.04;92.30
12536;BME280;6334;48.696;2.114;2023-10-31T03:31:33;98587.61;;;10.13;92.20
12536;BME280;6334;48.696;2.114;2023-10-31T03:34:03;98581.73;;;10.08;92.12
12536;BME280;6334;48.696;2.114;2023-10-31T03:36:33;98588.06;;;9.93;93.25
12536;BME280;6334;48.696;2.114;2023-10-31T03:41:37;98585.19;;;10.11;93.05
12536;BME280;6334;48.696;2.114;2023-10-31T03:44:07;98586.66;;;10.45;91.52
12536;BME280;6334;48.696;2.114;2023-10-31T03:46:37;98592.39;;;10.25;91.93
12536;BME280;6334;48.696;2.114;2023-10-31T03:49:08;98594.38;;;10.22;92.96
12536;BME280;6334;48.696;2.114;2023-10-31T03:51:39;98598.06;;;10.05;93.72
12536;BME280;6334;48.696;2.114;2023-10-31T03:54:10;98591.34;;;10.28;92.19
12536;BME280;6334;48.696;2.114;2023-10-31T03:56:42;98596.12;;;10.22;92.78
12536;BME280;6334;48.696;2.114;2023-10-31T03:59:12;98597.95;;;10.31;92.98
12536;BME280;6334;48.696;2.114;2023-10-31T04:01:42;98599.34;;;10.20;92.68
12536;BME280;6334;48.696;2.114;2023-10-31T04:04:12;98601.77;;;10.41;91.72
12536;BME280;6334;48.696;2.114;2023-10-31T04:06:43;98606.23;;;10.24;92.62
12536;BME280;6334;48.696;2.114;2023-10-31T04:09:14;98611.96;;;10.29;92.47
12536;BME280;6334;48.696;2.114;2023-10-31T04:11:44;98608.57;;;10.31;92.48
12536;BME280;6334;48.696;2.114;2023-10-31T04:14:14;98609.05;;;10.33;93.15
12536;BME280;6334;48.696;2.114;2023-10-31T04:16:43;98609.75;;;10.18;93.62
12536;BME280;6334;48.696;2.114;2023-10-31T04:19:17;98614.14;;;10.48;92.65
12536;BME280;6334;48.696;2.114;2023-10-31T04:21:47;98615.08;;;10.41;92.80
12536;BME280;6334;48.696;2.114;2023-10-31T04:24:16;98615.13;;;10.34;93.07
12536;BME280;6334;48.696;2.114;2023-10-31T04:26:46;98617.39;;;10.15;94.07
12536;BME280;6334;48.696;2.114;2023-10-31T04:29:17;98620.52;;;10.35;94.00
12536;BME280;6334;48.696;2.114;2023-10-31T04:31:47;98616.64;;;10.31;93.31
12536;BME280;6334;48.696;2.114;2023-10-31T04:34:19;98626.03;;;10.42;93.76
12536;BME280;6334;48.696;2.114;2023-10-31T04:36:49;98625.95;;;10.31;93.80
12536;BME280;6334;48.696;2.114;2023-10-31T04:39:20;98626.23;;;10.40;93.74
12536;BME280;6334;48.696;2.114;2023-10-31T04:41:51;98630.92;;;10.32;94.09
12536;BME280;6334;48.696;2.114;2023-10-31T04:44:22;98629.47;;;10.45;93.82
12536;BME280;6334;48.696;2.114;2023-10-31T04:46:54;98630.19;;;10.42;94.25
12536;BME280;6334;48.696;2.114;2023-10-31T04:49:24;98633.30;;;10.31;94.62
12536;BME280;6334;48.696;2.114;2023-10-31T04:51:54;98629.87;;;10.36;94.55
12536;BME280;6334;48.696;2.114;2023-10-31T04:54:24;98633.62;;;10.45;94.07
12536;BME280;6334;48.696;2.114;2023-10-31T04:56:54;98633.19;;;10.63;93.57
12536;BME280;6334;48.696;2.114;2023-10-31T04:59:24;98635.63;;;10.65;93.74
12536;BME280;6334;48.696;2.114;2023-10-31T05:01:54;98640.13;;;10.45;94.73
12536;BME280;6334;48.696;2.114;2023-10-31T05:04:23;98646.47;;;10.41;94.74
12536;BME280;6334;48.696;2.114;2023-10-31T05:06:53;98649.17;;;10.29;95.47
12536;BME280;6334;48.696;2.114;2023-10-31T05:09:23;98652.55;;;10.36;95.38
12536;BME280;6334;48.696;2.114;2023-10-31T05:11:53;98651.86;;;10.41;95.64
12536;BME280;6334;48.696;2.114;2023-10-31T05:14:23;98655.31;;;10.33;96.15
12536;BME280;6334;48.696;2.114;2023-10-31T05:16:52;98657.09;;;10.35;95.40
12536;BME280;6334;48.696;2.114;2023-10-31T05:19:22;98656.76;;;10.33;95.47
12536;BME280;6334;48.696;2.114;2023-10-31T05:21:52;98656.97;;;10.53;94.77
12536;BME280;6334;48.696;2.114;2023-10-31T05:24:23;98663.34;;;10.39;95.18
12536;BME280;6334;48.696;2.114;2023-10-31T05:26:54;98665.81;;;10.48;95.15
12536;BME280;6334;48.696;2.114;2023-10-31T05:29:24;98662.55;;;10.30;95.61
12536;BME280;6334;48.696;2.114;2023-10-31T05:31:55;98666.78;;;10.41;95.19
12536;BME280;6334;48.696;2.114;2023-10-31T05:34:25;98669.28;;;10.51;94.57
12536;BME280;6334;48.696;2.114;2023-10-31T05:36:55;98668.12;;;10.38;95.29
12536;BME280;6334;48.696;2.114;2023-10-31T05:39:26;98676.78;;;10.47;95.23
12536;BME280;6334;48.696;2.114;2023-10-31T05:41:57;98677.09;;;10.45;94.66
12536;BME280;6334;48.696;2.114;2023-10-31T05:44:28;98676.23;;;10.74;93.35
12536;BME280;6334;48.696;2.114;2023-10-31T05:46:59;98676.55;;;10.59;93.77
12536;BME280;6334;48.696;2.114;2023-10-31T05:49:29;98674.59;;;10.45;94.26
12536;BME280;6334;48.696;2.114;2023-10-31T05:51:59;98675.52;;;10.66;93.19
12536;BME280;6334;48.696;2.114;2023-10-31T05:54:29;98676.17;;;10.56;93.58
12536;BME280;6334;48.696;2.114;2023-10-31T05:57:00;98676.70;;;10.84;92.14
12536;BME280;6334;48.696;2.114;2023-10-31T05:59:30;98683.05;;;10.78;92.42
12536;BME280;6334;48.696;2.114;2023-10-31T06:02:00;98683.30;;;10.62;92.88
12536;BME280;6334;48.696;2.114;2023-10-31T06:04:30;98684.64;;;10.91;92.04
12536;BME280;6334;48.696;2.114;2023-10-31T06:07:00;98679.05;;;11.14;90.79
12536;BME280;6334;48.696;2.114;2023-10-31T06:09:30;98670.69;;;10.87;92.32
12536;BME280;6334;48.696;2.114;2023-10-31T06:12:00;98675.17;;;10.95;92.14
12536;BME280;6334;48.696;2.114;2023-10-31T06:14:30;98680.62;;;10.63;93.20
12536;BME280;6334;48.696;2.114;2023-10-31T06:17:01;98684.32;;;10.66;92.77
12536;BME280;6334;48.696;2.114;2023-10-31T06:19:34;98688.09;;;10.75;92.64
12536;BME280;6334;48.696;2.114;2023-10-31T06:22:05;98689.09;;;10.69;92.85
12536;BME280;6334;48.696;2.114;2023-10-31T06:24:35;98696.84;;;10.72;92.52
12536;BME280;6334;48.696;2.114;2023-10-31T06:27:05;98703.57;;;10.67;93.07
12536;BME280;6334;48.696;2.114;2023-10-31T06:29:35;98707.30;;;10.82;92.06
12536;BME280;6334;48.696;2.114;2023-10-31T06:32:05;98710.24;;;11.05;91.12
12536;BME280;6334;48.696;2.114;2023-10-31T06:34:35;98715.55;;;10.85;91.86
12536;BME280;6334;48.696;2.114;2023-10-31T06:37:05;98719.70;;;11.28;90.04
12536;BME280;6334;48.696;2.114;2023-10-31T06:39:36;98716.78;;;10.87;92.17
12536;BME280;6334;48.696;2.114;2023-10-31T06:42:08;98698.58;;;10.77;92.26
12536;BME280;6334;48.696;2.114;2023-10-31T06:44:40;98713.41;;;11.01;91.67
12536;BME280;6334;48.696;2.114;2023-10-31T06:47:09;98714.69;;;10.83;92.24
12536;BME280;6334;48.696;2.114;2023-10-31T06:49:40;98698.86;;;10.52;93.53
12536;BME280;6334;48.696;2.114;2023-10-31T06:52:12;98717.44;;;10.60;93.60
12536;BME280;6334;48.696;2.114;2023-10-31T06:54:45;98719.25;;;10.63;93.27
12536;BME280;6334;48.696;2.114;2023-10-31T06:57:19;98719.61;;;10.75;92.88
12536;BME280;6334;48.696;2.114;2023-10-31T06:59:49;98721.42;;;10.74;92.90
12536;BME280;6334;48.696;2.114;2023-10-31T07:02:21;98721.80;;;10.92;92.85
12536;BME280;6334;48.696;2.114;2023-10-31T07:04:52;98724.08;;;10.80;92.39
12536;BME280;6334;48.696;2.114;2023-10-31T07:07:21;98727.15;;;10.84;92.65
12536;BME280;6334;48.696;2.114;2023-10-31T07:09:51;98735.02;;;10.82;93.22
12536;BME280;6334;48.696;2.114;2023-10-31T07:12:22;98731.87;;;11.18;91.43
12536;BME280;6334;48.696;2.114;2023-10-31T07:14:53;98727.98;;;11.08;92.07
12536;BME280;6334;48.696;2.114;2023-10-31T07:17:23;98732.90;;;11.12;91.77
12536;BME280;6334;48.696;2.114;2023-10-31T07:19:53;98739.12;;;11.23;90.76
12536;BME280;6334;48.696;2.114;2023-10-31T07:22:23;98747.72;;;11.02;91.72
12536;BME280;6334;48.696;2.114;2023-10-31T07:24:54;98750.73;;;11.16;91.71
12536;BME280;6334;48.696;2.114;2023-10-31T07:27:25;98756.56;;;11.28;91.07
12536;BME280;6334;48.696;2.114;2023-10-31T07:29:55;98757.38;;;11.07;91.71
12536;BME280;6334;48.696;2.114;2023-10-31T07:32:26;98758.73;;;11.28;91.69
12536;BME280;6334;48.696;2.114;2023-10-31T07:34:57;98764.70;;;10.99;91.80
12536;BME280;6334;48.696;2.114;2023-10-31T07:37:33;98762.12;;;11.19;91.41
12536;BME280;6334;48.696;2.114;2023-10-31T07:40:11;98771.62;;;10.84;92.98
12536;BME280;6334;48.696;2.114;2023-10-31T07:42:42;98777.92;;;10.91;92.65
12536;BME280;6334;48.696;2.114;2023-10-31T07:45:12;98781.74;;;10.83;93.10
12536;BME280;6334;48.696;2.114;2023-10-31T07:47:43;98780.86;;;10.77;93.16
12536;BME280;6334;48.696;2.114;2023-10-31T07:50:13;98788.80;;;10.90;92.86
12536;BME280;6334;48.696;2.114;2023-10-31T07:52:43;98795.98;;;10.82;93.10
12536;BME280;6334;48.696;2.114;2023-10-31T07:55:13;98789.59;;;10.84;92.81
12536;BME280;6334;48.696;2.114;2023-10-31T07:57:44;98793.56;;;11.10;91.87
12536;BME280;6334;48.696;2.114;2023-10-31T08:00:15;98792.02;;;10.97;92.39
12536;BME280;6334;48.696;2.114;2023-10-31T08:02:45;98793.49;;;11.07;91.91
12536;BME280;6334;48.696;2.114;2023-10-31T08:05:16;98794.25;;;10.89;92.77
12536;BME280;6334;48.696;2.114;2023-10-31T08:07:46;98799.36;;;11.13;91.93
12536;BME280;6334;48.696;2.114;2023-10-31T08:10:18;98804.31;;;11.05;91.78
12536;BME280;6334;48.696;2.114;2023-10-31T08:12:49;98802.70;;;11.05;92.10
12536;BME280;6334;48.696;2.114;2023-10-31T08:15:20;98809.55;;;11.05;92.55
12536;BME280;6334;48.696;2.114;2023-10-31T08:17:51;98811.11;;;11.13;91.75
12536;BME280;6334;48.696;2.114;2023-10-31T08:20:21;98817.20;;;11.27;91.61
12536;BME280;6334;48.696;2.114;2023-10-31T08:22:51;98822.89;;;11.22;91.88
12536;BME280;6334;48.696;2.114;2023-10-31T08:25:21;98827.33;;;11.40;91.25
12536;BME280;6334;48.696;2.114;2023-10-31T08:27:51;98828.63;;;11.38;91.28
12536;BME280;6334;48.696;2.114;2023-10-31T08:30:21;98832.74;;;11.45;91.13
12536;BME280;6334;48.696;2.114;2023-10-31T08:32:50;98832.81;;;11.26;91.86
12536;BME280;6334;48.696;2.114;2023-10-31T08:35:21;98838.19;;;11.48;91.10
12536;BME280;6334;48.696;2.114;2023-10-31T08:37:51;98838.97;;;11.17;92.05
12536;BME280;6334;48.696;2.114;2023-10-31T08:40:22;98836.11;;;11.37;91.43
12536;BME280;6334;48.696;2.114;2023-10-31T08:42:52;98831.31;;;11.19;92.29
12536;BME280;6334;48.696;2.114;2023-10-31T08:45:22;98840.75;;;11.35;92.05
12536;BME280;6334;48.696;2.114;2023-10-31T08:47:53;98847.77;;;11.27;92.51
12536;BME280;6334;48.696;2.114;2023-10-31T08:50:22;98848.87;;;11.50;91.33
12536;BME280;6334;48.696;2.114;2023-10-31T08:52:53;98850.50;;;11.23;92.75
12536;BME280;6334;48.696;2.114;2023-10-31T08:55:26;98855.05;;;11.34;92.36
12536;BME280;6334;48.696;2.114;2023-10-31T08:57:56;98860.09;;;11.32;92.49
12536;BME280;6334;48.696;2.114;2023-10-31T09:00:26;98866.20;;;11.36;92.32
12536;BME280;6334;48.696;2.114;2023-10-31T09:02:56;98880.59;;;11.31;92.29
12536;BME280;6334;48.696;2.114;2023-10-31T09:05:27;98884.19;;;11.23;92.58
12536;BME280;6334;48.696;2.114;2023-10-31T09:07:57;98886.56;;;11.32;92.22
12536;BME280;6334;48.696;2.114;2023-10-31T09:10:28;98894.47;;;11.40;91.96
12536;BME280;6334;48.696;2.114;2023-10-31T09:12:58;98898.83;;;11.42;91.75
12536;BME280;6334;48.696;2.114;2023-10-31T09:15:29;98902.52;;;11.23;92.53
12536;BME280;6334;48.696;2.114;2023-10-31T09:17:59;98905.11;;;11.43;92.12
12536;BME280;6334;48.696;2.114;2023-10-31T09:20:30;98909.13;;;11.40;91.83
12536;BME280;6334;48.696;2.114;2023-10-31T09:23:00;98916.09;;;11.33;92.20
12536;BME280;6334;48.696;2.114;2023-10-31T09:25:31;98914.73;;;11.36;91.39
12536;BME280;6334;48.696;2.114;2023-10-31T09:28:01;98917.92;;;11.35;91.37
12536;BME280;6334;48.696;2.114;2023-10-31T09:30:31;98925.14;;;11.54;90.18
12536;BME280;6334;48.696;2.114;2023-10-31T09:33:02;98928.56;;;11.63;89.81
12536;BME280;6334;48.696;2.114;2023-10-31T09:35:32;98933.63;;;11.39;91.46
12536;BME280;6334;48.696;2.114;2023-10-31T09:38:03;98927.16;;;11.38;91.00
12536;BME280;6334;48.696;2.114;2023-10-31T09:40:36;98932.30;;;11.66;90.25
12536;BME280;6334;48.696;2.114;2023-10-31T09:43:05;98928.95;;;11.62;90.39
12536;BME280;6334;48.696;2.114;2023-10-31T09:45:36;98935.85;;;11.57;89.17
12536;BME280;6334;48.696;2.114;2023-10-31T09:48:06;98940.77;;;11.92;89.75
12536;BME280;6334;48.696;2.114;2023-10-31T09:50:36;98934.51;;;11.77;89.06
12536;BME280;6334;48.696;2.114;2023-10-31T09:53:07;98937.77;;;11.87;88.81
12536;BME280;6334;48.696;2.114;2023-10-31T09:55:38;98954.56;;;12.17;88.07
12536;BME280;6334;48.696;2.114;2023-10-31T09:58:08;98956.89;;;12.34;90.74
12536;BME280;6334;48.696;2.114;2023-10-31T10:00:38;98959.38;;;12.01;88.27
12536;BME280;6334;48.696;2.114;2023-10-31T10:03:09;98957.44;;;12.09;89.86
12536;BME280;6334;48.696;2.114;2023-10-31T10:05:39;98962.31;;;12.58;87.73
12536;BME280;6334;48.696;2.114;2023-10-31T10:08:10;98962.77;;;12.58;88.56
12536;BME280;6334;48.696;2.114;2023-10-31T10:10:40;98957.58;;;12.24;86.75
12536;BME280;6334;48.696;2.114;2023-10-31T10:13:11;98959.81;;;12.12;86.45
12536;BME280;6334;48.696;2.114;2023-10-31T10:15:45;98964.69;;;12.30;87.40
12536;BME280;6334;48.696;2.114;2023-10-31T10:18:32;98959.42;;;12.88;84.79
12536;BME280;6334;48.696;2.114;2023-10-31T10:21:03;98960.97;;;12.20;87.39
12536;BME280;6334;48.696;2.114;2023-10-31T10:23:31;98970.83;;;12.33;86.67
12536;BME280;6334;48.696;2.114;2023-10-31T10:26:01;98977.52;;;12.23;87.50
12536;BME280;6334;48.696;2.114;2023-10-31T10:28:31;98977.97;;;12.48;85.26
12536;BME280;6334;48.696;2.114;2023-10-31T10:31:02;98983.14;;;12.11;85.65
12536;BME280;6334;48.696;2.114;2023-10-31T10:33:33;98989.11;;;12.17;86.63
12536;BME280;6334;48.696;2.114;2023-10-31T10:36:03;98987.84;;;12.17;86.04
12536;BME280;6334;48.696;2.114;2023-10-31T10:38:34;98989.87;;;12.21;86.19
12536;BME280;6334;48.696;2.114;2023-10-31T10:41:04;98993.63;;;12.18;86.07
12536;BME280;6334;48.696;2.114;2023-10-31T10:43:36;98994.41;;;12.30;85.90
12536;BME280;6334;48.696;2.114;2023-10-31T10:46:05;99002.27;;;12.41;85.16
12536;BME280;6334;48.696;2.114;2023-10-31T10:48:35;99003.16;;;12.43;85.44
12536;BME280;6334;48.696;2.114;2023-10-31T10:51:13;99012.58;;;12.18;86.42
12536;BME280;6334;48.696;2.114;2023-10-31T10:53:44;99005.53;;;12.40;84.87
12536;BME280;6334;48.696;2.114;2023-10-31T10:56:33;99005.16;;;12.34;85.57
12536;BME280;6334;48.696;2.114;2023-10-31T10:59:03;99011.65;;;12.56;85.29
12536;BME280;6334;48.696;2.114;2023-10-31T11:01:32;99014.86;;;12.33;85.75
12536;BME280;6334;48.696;2.114;2023-10-31T11:04:03;99014.61;;;12.40;85.85
12536;BME280;6334;48.696;2.114;2023-10-31T11:06:33;99013.22;;;12.35;86.10
12536;BME280;6334;48.696;2.114;2023-10-31T11:09:04;99015.38;;;12.51;85.65
12536;BME280;6334;48.696;2.114;2023-10-31T11:11:34;99012.90;;;12.37;85.44
12536;BME280;6334;48.696;2.114;2023-10-31T11:14:05;99019.43;;;12.75;84.92
12536;BME280;6334;48.696;2.114;2023-10-31T11:16:53;99016.11;;;12.41;85.33
12536;BME280;6334;48.696;2.114;2023-10-31T11:19:22;99019.80;;;12.63;85.25
12536;BME280;6334;48.696;2.114;2023-10-31T11:22:00;99017.13;;;12.56;84.65
12536;BME280;6334;48.696;2.114;2023-10-31T11:24:31;99014.77;;;12.71;84.79
12536;BME280;6334;48.696;2.114;2023-10-31T11:27:02;99013.40;;;13.20;83.36
12536;BME280;6334;48.696;2.114;2023-10-31T11:29:32;99015.64;;;13.05;84.22
12536;BME280;6334;48.696;2.114;2023-10-31T11:32:02;99018.86;;;13.06;83.79
12536;BME280;6334;48.696;2.114;2023-10-31T11:34:33;99015.48;;;12.98;84.71
12536;BME280;6334;48.696;2.114;2023-10-31T11:37:31;99017.91;;;12.76;84.65
12536;BME280;6334;48.696;2.114;2023-10-31T11:40:24;99021.94;;;13.22;84.38
12536;BME280;6334;48.696;2.114;2023-10-31T11:42:56;99027.73;;;13.36;84.31
12536;BME280;6334;48.696;2.114;2023-10-31T11:45:33;99024.32;;;13.12;83.97
12536;BME280;6334;48.696;2.114;2023-10-31T11:47:59;99027.11;;;13.43;83.87
12536;BME280;6334;48.696;2.114;2023-10-31T11:50:30;99029.84;;;13.36;83.87
12536;BME280;6334;48.696;2.114;2023-10-31T11:53:05;99022.54;;;13.31;83.08
12536;BME280;6334;48.696;2.114;2023-10-31T11:55:40;99025.48;;;13.27;83.32
12536;BME280;6334;48.696;2.114;2023-10-31T11:58:21;99028.42;;;13.26;82.34
12536;BME280;6334;48.696;2.114;2023-10-31T12:00:50;99025.14;;;13.18;81.28
12536;BME280;6334;48.696;2.114;2023-10-31T12:03:20;99028.31;;;13.10;82.79
12536;BME280;6334;48.696;2.114;2023-10-31T12:05:56;99029.17;;;13.14;83.31
12536;BME280;6334;48.696;2.114;2023-10-31T12:08:38;99032.69;;;13.18;83.87
12536;BME280;6334;48.696;2.114;2023-10-31T12:11:16;99033.58;;;13.20;83.26
12536;BME280;6334;48.696;2.114;2023-10-31T12:13:53;99032.05;;;13.10;83.22
12536;BME280;6334;48.696;2.114;2023-10-31T12:16:29;99040.65;;;13.31;82.05
12536;BME280;6334;48.696;2.114;2023-10-31T12:19:01;99029.97;;;13.08;81.18
12536;BME280;6334;48.696;2.114;2023-10-31T12:21:46;99032.78;;;13.09;80.46
12536;BME280;6334;48.696;2.114;2023-10-31T12:24:16;99029.69;;;13.07;80.81
12536;BME280;6334;48.696;2.114;2023-10-31T12:26:45;99043.56;;;13.24;80.36
12536;BME280;6334;48.696;2.114;2023-10-31T12:29:16;99047.70;;;13.34;80.81
12536;BME280;6334;48.696;2.114;2023-10-31T12:31:53;99048.58;;;13.67;80.69
12536;BME280;6334;48.696;2.114;2023-10-31T12:34:23;99047.43;;;13.60;80.76
12536;BME280;6334;48.696;2.114;2023-10-31T12:36:53;99048.42;;;13.68;80.35
12536;BME280;6334;48.696;2.114;2023-10-31T12:39:26;99046.17;;;13.58;79.02
12536;BME280;6334;48.696;2.114;2023-10-31T12:41:57;99043.64;;;13.73;79.38
12536;BME280;6334;48.696;2.114;2023-10-31T12:44:27;99041.36;;;13.67;78.15
12536;BME280;6334;48.696;2.114;2023-10-31T12:46:58;99041.92;;;13.66;78.80
12536;BME280;6334;48.696;2.114;2023-10-31T12:49:28;99042.19;;;13.47;78.71
12536;BME280;6334;48.696;2.114;2023-10-31T12:51:59;99046.18;;;13.41;78.45
12536;BME280;6334;48.696;2.114;2023-10-31T12:54:30;99053.78;;;13.34;78.47
12536;BME280;6334;48.696;2.114;2023-10-31T12:57:00;99061.63;;;13.30;79.08
12536;BME280;6334;48.696;2.114;2023-10-31T12:59:30;99061.78;;;13.32;79.18
12536;BME280;6334;48.696;2.114;2023-10-31T13:02:00;99067.40;;;13.25;78.99
12536;BME280;6334;48.696;2.114;2023-10-31T13:04:31;99071.66;;;13.27;79.01
12536;BME280;6334;48.696;2.114;2023-10-31T13:07:05;99070.48;;;13.23;79.59
12536;BME280;6334;48.696;2.114;2023-10-31T13:09:37;99074.65;;;13.33;79.83
12536;BME280;6334;48.696;2.114;2023-10-31T13:12:08;99071.35;;;13.38;79.77
12536;BME280;6334;48.696;2.114;2023-10-31T13:14:38;99069.81;;;13.34;80.17
12536;BME280;6334;48.696;2.114;2023-10-31T13:17:11;99075.52;;;13.53;79.80
12536;BME280;6334;48.696;2.114;2023-10-31T13:19:42;99070.36;;;13.44;79.21
12536;BME280;6334;48.696;2.114;2023-10-31T13:22:13;99070.83;;;13.60;79.27
12536;BME280;6334;48.696;2.114;2023-10-31T13:24:42;99076.50;;;13.67;79.66
12536;BME280;6334;48.696;2.114;2023-10-31T13:27:13;99064.77;;;13.67;78.80
12536;BME280;6334;48.696;2.114;2023-10-31T13:29:43;99072.17;;;13.75;79.48
12536;BME280;6334;48.696;2.114;2023-10-31T13:32:14;99073.47;;;13.94;79.18
12536;BME280;6334;48.696;2.114;2023-10-31T13:34:44;99072.13;;;14.04;79.02
12536;BME280;6334;48.696;2.114;2023-10-31T13:37:14;99071.95;;;13.80;78.84
12536;BME280;6334;48.696;2.114;2023-10-31T13:39:45;99078.73;;;13.96;79.44